createdAt,value
2019-01-26T00:02:29.050Z,100367.23
2019-01-26T00:05:00.291Z,100363.11
2019-01-26T00:07:32.216Z,100373.72
2019-01-26T00:10:01.596Z,100372.25
2019-01-26T00:12:32.699Z,100373.54
2019-01-26T00:15:02.111Z,100367.28
2019-01-26T00:17:31.496Z,100368.71
2019-01-26T00:20:02.256Z,100357.48
2019-01-26T00:22:32.778Z,100358.55
2019-01-26T00:25:02.181Z,100351.73
2019-01-26T00:27:31.812Z,100350.89
2019-01-26T00:30:02.241Z,100342.55
2019-01-26T00:32:31.615Z,100345.17
2019-01-26T00:35:04.527Z,100345.53
2019-01-26T00:37:35.411Z,100348.48
2019-01-26T00:40:06.251Z,100344.98
2019-01-26T00:42:35.778Z,100350.62
2019-01-26T00:45:06.399Z,100337.84
2019-01-26T00:47:37.591Z,100336.36
2019-01-26T00:50:07.417Z,100342.34
2019-01-26T00:52:36.788Z,100326.96
2019-01-26T00:55:07.113Z,100329.75
2019-01-26T00:57:37.150Z,100314.09
2019-01-26T01:00:08.840Z,100308.53
2019-01-26T01:02:38.211Z,100314.21
2019-01-26T01:05:08.845Z,100317.92
2019-01-26T01:07:38.257Z,100317.71
2019-01-26T01:10:09.521Z,100318.41
2019-01-26T01:12:39.025Z,100301.13
2019-01-26T01:15:09.703Z,100296.94
2019-01-26T01:17:39.078Z,100295.30
2019-01-26T01:20:09.282Z,100290.56
2019-01-26T01:22:38.690Z,100285.66
2019-01-26T01:25:08.545Z,100274.95
2019-01-26T01:27:37.972Z,100270.21
2019-01-26T01:30:09.805Z,100270.21
2019-01-26T01:32:39.183Z,100275.70
2019-01-26T01:35:08.847Z,100275.02
2019-01-26T01:37:38.237Z,100270.78
2019-01-26T01:40:08.554Z,100266.62
2019-01-26T01:42:39.824Z,100264.20
2019-01-26T01:45:11.461Z,100267.58
2019-01-26T01:47:41.036Z,100260.27
2019-01-26T01:50:10.898Z,100266.36
2019-01-26T01:52:40.351Z,100256.77
2019-01-26T01:55:10.710Z,100262.93
2019-01-26T01:57:40.350Z,100258.56
2019-01-26T02:00:14.246Z,100250.20
2019-01-26T02:02:43.713Z,100252.45
2019-01-26T02:05:13.363Z,100248.52
2019-01-26T02:07:45.572Z,100242.88
2019-01-26T02:10:18.136Z,100255.58
2019-01-26T02:12:49.270Z,100244.38
2019-01-26T02:15:18.860Z,100244.52
2019-01-26T02:17:48.261Z,100239.12
2019-01-26T02:20:20.520Z,100244.80
2019-01-26T02:22:50.083Z,100239.19
2019-01-26T02:25:19.685Z,100219.63
2019-01-26T02:27:49.093Z,100229.65
2019-01-26T02:30:23.659Z,100238.21
2019-01-26T02:32:54.602Z,100238.94
2019-01-26T02:35:24.467Z,100234.40
2019-01-26T02:37:55.556Z,100227.56
2019-01-26T02:40:24.947Z,100228.95
2019-01-26T02:42:55.622Z,100228.95
2019-01-26T02:45:25.123Z,100237.91
2019-01-26T02:47:54.526Z,100236.58
2019-01-26T02:50:26.003Z,100237.77
2019-01-26T02:52:55.370Z,100243.13
2019-01-26T02:55:24.748Z,100242.22
2019-01-26T02:57:54.317Z,100235.34
2019-01-26T03:00:24.672Z,100240.69
2019-01-26T03:02:54.512Z,100240.81
2019-01-26T03:05:24.070Z,100228.11
2019-01-26T03:07:53.460Z,100225.48
2019-01-26T03:10:25.032Z,100224.55
2019-01-26T03:12:54.648Z,100221.73
2019-01-26T03:15:24.703Z,100223.59
2019-01-26T03:17:55.186Z,100223.20
2019-01-26T03:20:24.626Z,100218.34
2019-01-26T03:22:55.023Z,100229.54
2019-01-26T03:25:27.119Z,100223.44
2019-01-26T03:27:56.701Z,100227.39
2019-01-26T03:30:26.811Z,100229.59
2019-01-26T03:32:56.376Z,100228.19
2019-01-26T03:35:25.900Z,100233.61
2019-01-26T03:37:55.320Z,100227.70
2019-01-26T03:40:24.752Z,100225.89
2019-01-26T03:42:54.203Z,100232.48
2019-01-26T03:45:25.457Z,100240.02
2019-01-26T03:47:54.849Z,100237.72
2019-01-26T03:50:25.557Z,100233.35
2019-01-26T03:52:55.024Z,100229.39
2019-01-26T03:55:25.522Z,100235.60
2019-01-26T03:57:55.055Z,100234.29
2019-01-26T04:00:26.488Z,100229.20
2019-01-26T04:02:55.886Z,100226.41
2019-01-26T04:05:25.430Z,100234.75
2019-01-26T04:07:55.080Z,100233.42
2019-01-26T04:10:24.473Z,100230.37
2019-01-26T04:12:54.001Z,100234.56
2019-01-26T04:15:23.400Z,100230.67
2019-01-26T04:17:52.786Z,100227.73
2019-01-26T04:20:22.684Z,100223.77
2019-01-26T04:22:52.364Z,100220.48
2019-01-26T04:25:22.762Z,100215.09
2019-01-26T04:27:52.394Z,100215.98
2019-01-26T04:30:22.739Z,100209.94
2019-01-26T04:32:52.117Z,100211.23
2019-01-26T04:35:21.542Z,100212.20
2019-01-26T04:37:52.728Z,100205.72
2019-01-26T04:40:23.219Z,100210.39
2019-01-26T04:42:52.917Z,100211.35
2019-01-26T04:45:23.946Z,100210.91
2019-01-26T04:47:53.330Z,100205.17
2019-01-26T04:50:23.119Z,100207.11
2019-01-26T04:52:54.343Z,100206.11
2019-01-26T04:55:23.739Z,100201.38
2019-01-26T04:57:53.401Z,100200.92
2019-01-26T05:00:27.743Z,100193.61
2019-01-26T05:02:59.113Z,100182.80
2019-01-26T05:05:28.610Z,100175.36
2019-01-26T05:07:58.010Z,100174.98
2019-01-26T05:10:27.891Z,100184.40
2019-01-26T05:12:57.556Z,100175.81
2019-01-26T05:15:26.950Z,100174.12
2019-01-26T05:17:56.341Z,100176.14
2019-01-26T05:20:26.803Z,100184.16
2019-01-26T05:22:58.053Z,100184.61
2019-01-26T05:25:27.441Z,100181.14
2019-01-26T05:27:56.976Z,100181.52
2019-01-26T05:30:28.686Z,100180.81
2019-01-26T05:32:58.090Z,100183.83
2019-01-26T05:35:27.723Z,100180.73
2019-01-26T05:37:57.102Z,100171.31
2019-01-26T05:40:26.495Z,100174.20
2019-01-26T05:42:56.030Z,100170.23
2019-01-26T05:45:25.679Z,100170.94
2019-01-26T05:47:56.312Z,100169.45
2019-01-26T05:50:27.127Z,100169.13
2019-01-26T05:52:56.654Z,100173.42
2019-01-26T05:55:26.066Z,100181.10
2019-01-26T05:57:55.802Z,100171.15
2019-01-26T06:00:32.328Z,100175.36
2019-01-26T06:03:01.723Z,100173.92
2019-01-26T06:05:33.014Z,100174.50
2019-01-26T06:08:02.456Z,100171.61
2019-01-26T06:10:33.348Z,100176.68
2019-01-26T06:13:04.415Z,100168.59
2019-01-26T06:15:35.621Z,100162.77
2019-01-26T06:18:05.036Z,100164.05
2019-01-26T06:20:34.676Z,100164.05
2019-01-26T06:23:04.865Z,100165.78
2019-01-26T06:25:36.150Z,100162.64
2019-01-26T06:28:06.054Z,100164.46
2019-01-26T06:30:35.450Z,100161.70
2019-01-26T06:33:04.876Z,100159.55
2019-01-26T06:35:36.221Z,100160.13
2019-01-26T06:38:05.643Z,100151.95
2019-01-26T06:40:35.046Z,100153.73
2019-01-26T06:43:04.737Z,100155.67
2019-01-26T06:45:35.133Z,100151.25
2019-01-26T06:48:05.763Z,100150.62
2019-01-26T06:50:36.733Z,100147.50
2019-01-26T06:53:06.156Z,100142.22
2019-01-26T06:55:36.880Z,100148.52
2019-01-26T06:58:07.316Z,100145.43
2019-01-26T07:00:36.841Z,100138.98
2019-01-26T07:03:06.227Z,100137.26
2019-01-26T07:05:54.790Z,100138.09
2019-01-26T07:08:24.667Z,100134.00
2019-01-26T07:10:54.075Z,100134.70
2019-01-26T07:13:24.748Z,100133.05
2019-01-26T07:15:58.505Z,100136.96
2019-01-26T07:18:28.421Z,100138.91
2019-01-26T07:20:57.997Z,100140.84
2019-01-26T07:23:28.514Z,100140.55
2019-01-26T07:25:59.043Z,100143.19
2019-01-26T07:28:28.656Z,100147.61
2019-01-26T07:30:58.063Z,100149.88
2019-01-26T07:33:27.472Z,100143.64
2019-01-26T07:35:58.389Z,100143.48
2019-01-26T07:38:27.874Z,100143.52
2019-01-26T07:40:58.263Z,100139.25
2019-01-26T07:43:27.954Z,100139.55
2019-01-26T07:45:57.353Z,100139.38
2019-01-26T07:48:28.064Z,100134.50
2019-01-26T07:50:57.641Z,100137.39
2019-01-26T07:53:27.020Z,100134.38
2019-01-26T07:55:57.427Z,100135.17
2019-01-26T07:58:27.177Z,100139.25
2019-01-26T08:00:58.029Z,100135.59
2019-01-26T08:03:27.438Z,100134.05
2019-01-26T08:05:56.973Z,100125.81
2019-01-26T08:08:28.263Z,100123.55
2019-01-26T08:10:58.757Z,100118.58
2019-01-26T08:13:28.304Z,100125.34
2019-01-26T08:15:57.798Z,100122.98
2019-01-26T08:18:27.216Z,100123.91
2019-01-26T08:20:56.659Z,100120.48
2019-01-26T08:23:26.412Z,100118.62
2019-01-26T08:25:55.851Z,100117.44
2019-01-26T08:28:25.559Z,100120.08
2019-01-26T08:30:55.000Z,100115.34
2019-01-26T08:33:24.466Z,100126.41
2019-01-26T08:35:54.076Z,100122.96
2019-01-26T08:38:23.480Z,100120.31
2019-01-26T08:40:52.924Z,100114.30
2019-01-26T08:43:23.641Z,100109.59
2019-01-26T08:45:53.059Z,100100.70
2019-01-26T08:48:22.550Z,100100.47
2019-01-26T08:50:54.443Z,100098.97
2019-01-26T08:53:23.849Z,100106.36
2019-01-26T08:55:53.236Z,100100.33
2019-01-26T08:58:22.694Z,100104.67
2019-01-26T09:00:52.120Z,100102.80
2019-01-26T09:03:48.351Z,100101.39
2019-01-26T09:06:40.154Z,100103.80
2019-01-26T09:09:11.909Z,100104.13
2019-01-26T09:11:42.545Z,100102.77
2019-01-26T09:14:11.976Z,100098.94
2019-01-26T09:16:41.591Z,100103.12
2019-01-26T09:19:10.983Z,100103.31
2019-01-26T09:21:40.493Z,100100.58
2019-01-26T09:24:09.921Z,100102.91
2019-01-26T09:26:39.753Z,100103.77
2019-01-26T09:29:10.249Z,100107.78
2019-01-26T09:31:39.690Z,100104.81
2019-01-26T09:34:09.080Z,100103.05
2019-01-26T09:36:38.610Z,100100.11
2019-01-26T09:39:12.181Z,100105.14
2019-01-26T09:41:41.610Z,100098.11
2019-01-26T09:44:11.214Z,100104.31
2019-01-26T09:46:40.814Z,100104.91
2019-01-26T09:49:10.221Z,100099.50
2019-01-26T09:51:39.635Z,100091.65
2019-01-26T09:54:09.199Z,100099.19
2019-01-26T09:56:40.121Z,100096.12
2019-01-26T09:59:10.728Z,100097.30
2019-01-26T10:01:41.349Z,100096.77
2019-01-26T10:04:10.772Z,100097.73
2019-01-26T10:06:40.188Z,100089.15
2019-01-26T10:09:13.173Z,100083.30
2019-01-26T10:11:42.578Z,100084.53
2019-01-26T10:14:11.976Z,100087.80
2019-01-26T10:16:41.460Z,100086.08
2019-01-26T10:19:10.869Z,100084.33
2019-01-26T10:21:41.768Z,100086.11
2019-01-26T10:24:12.693Z,100083.25
2019-01-26T10:26:42.116Z,100086.02
2019-01-26T10:29:11.584Z,100089.36
2019-01-26T10:31:41.294Z,100085.01
2019-01-26T10:34:10.844Z,100087.02
2019-01-26T10:37:05.222Z,100089.45
2019-01-26T10:39:34.801Z,100088.77
2019-01-26T10:42:18.380Z,100084.61
2019-01-26T10:44:49.279Z,100091.23
2019-01-26T10:47:20.624Z,100085.34
2019-01-26T10:49:50.032Z,100094.80
2019-01-26T10:52:20.034Z,100092.28
2019-01-26T10:54:50.444Z,100090.09
2019-01-26T10:57:19.877Z,100092.27
2019-01-26T10:59:50.907Z,100091.25
2019-01-26T11:02:24.284Z,100085.48
2019-01-26T11:04:53.758Z,100082.07
2019-01-26T11:07:23.496Z,100080.20
2019-01-26T11:09:54.084Z,100077.86
2019-01-26T11:12:23.616Z,100079.84
2019-01-26T11:14:53.420Z,100075.98
2019-01-26T11:17:22.903Z,100080.09
2019-01-26T11:19:52.424Z,100078.79
2019-01-26T11:22:25.187Z,100067.42
2019-01-26T11:24:54.591Z,100073.91
2019-01-26T11:27:25.080Z,100072.58
2019-01-26T11:29:54.745Z,100075.25
2019-01-26T11:32:24.496Z,100075.58
2019-01-26T11:34:54.088Z,100075.67
2019-01-26T11:37:24.445Z,100068.53
2019-01-26T11:39:59.711Z,100074.42
2019-01-26T11:42:30.958Z,100069.05
2019-01-26T11:45:14.533Z,100061.98
2019-01-26T11:47:43.955Z,100059.48
2019-01-26T11:50:18.728Z,100059.24
2019-01-26T11:52:48.450Z,100057.76
2019-01-26T11:55:43.772Z,100046.34
2019-01-26T11:58:13.392Z,100047.60
2019-01-26T12:00:59.448Z,100040.97
2019-01-26T12:03:41.238Z,100039.56
2019-01-26T12:06:24.854Z,100041.45
2019-01-26T12:08:55.421Z,100041.55
2019-01-26T12:11:24.827Z,100035.73
2019-01-26T12:13:55.263Z,100031.96
2019-01-26T12:16:27.043Z,100033.80
2019-01-26T12:18:57.967Z,100035.58
2019-01-26T12:21:27.461Z,100035.33
2019-01-26T12:23:58.120Z,100038.44
2019-01-26T12:26:27.770Z,100032.38
2019-01-26T12:28:59.108Z,100030.95
2019-01-26T12:31:28.798Z,100027.27
2019-01-26T12:33:58.318Z,100028.30
2019-01-26T12:36:28.834Z,100026.50
2019-01-26T12:39:00.679Z,100031.71
2019-01-26T12:41:31.210Z,100024.32
2019-01-26T12:44:00.741Z,100019.47
2019-01-26T12:46:31.723Z,100025.17
2019-01-26T12:49:02.269Z,100020.63
2019-01-26T12:51:31.673Z,100017.58
2019-01-26T12:54:02.465Z,100013.52
2019-01-26T12:56:32.026Z,100007.64
2019-01-26T12:59:01.445Z,100010.95
2019-01-26T13:01:31.034Z,100012.08
2019-01-26T13:04:01.658Z,100012.19
2019-01-26T13:06:31.904Z,100012.17
2019-01-26T13:09:01.609Z,100005.55
2019-01-26T13:11:33.614Z,100014.01
2019-01-26T13:14:03.132Z,100005.09
2019-01-26T13:16:36.290Z,100007.94
2019-01-26T13:19:08.327Z,100001.88
2019-01-26T13:21:37.735Z,100000.15
2019-01-26T13:24:10.969Z,99998.62
2019-01-26T13:26:41.024Z,99999.78
2019-01-26T13:29:10.429Z,99996.67
2019-01-26T13:31:40.014Z,99991.73
2019-01-26T13:34:09.406Z,99995.80
2019-01-26T13:36:40.951Z,99988.11
2019-01-26T13:39:11.275Z,99992.19
2019-01-26T13:41:42.479Z,99995.23
2019-01-26T13:44:12.133Z,99985.30
2019-01-26T13:46:41.589Z,99985.30
2019-01-26T13:49:11.037Z,99986.33
2019-01-26T13:51:40.450Z,99984.23
2019-01-26T13:54:09.965Z,99985.26
2019-01-26T13:56:39.422Z,99982.14
2019-01-26T13:59:08.951Z,99976.68
2019-01-26T14:01:38.625Z,99980.83
2019-01-26T14:04:08.084Z,99980.17
2019-01-26T14:06:54.655Z,99972.70
2019-01-26T14:09:24.282Z,99965.48
2019-01-26T14:11:53.669Z,99969.55
2019-01-26T14:14:23.648Z,99961.04
2019-01-26T14:16:54.104Z,99959.61
2019-01-26T14:19:26.279Z,99953.28
2019-01-26T14:21:58.478Z,99956.66
2019-01-26T14:24:31.002Z,99950.89
2019-01-26T14:27:00.716Z,99946.25
2019-01-26T14:29:31.344Z,99949.09
2019-01-26T14:32:01.024Z,99949.09
2019-01-26T14:34:30.499Z,99947.94
2019-01-26T14:37:00.771Z,99949.05
2019-01-26T14:39:30.402Z,99943.95
2019-01-26T14:41:59.920Z,99947.36
2019-01-26T14:44:29.898Z,99934.77
2019-01-26T14:46:59.365Z,99934.77
2019-01-26T14:49:28.770Z,99937.88
2019-01-26T14:52:00.600Z,99939.45
2019-01-26T14:58:39.881Z,99926.60
2019-01-26T15:01:09.314Z,99927.51
2019-01-26T15:03:38.747Z,99926.95
2019-01-26T15:06:08.307Z,99924.56
2019-01-26T15:08:37.790Z,99917.59
2019-01-26T15:11:07.317Z,99916.56
2019-01-26T15:13:38.359Z,99912.19
2019-01-26T15:16:07.830Z,99921.00
2019-01-26T15:18:37.237Z,99915.14
2019-01-26T15:21:06.938Z,99909.38
2019-01-26T15:23:36.329Z,99904.35
2019-01-26T15:26:06.036Z,99909.19
2019-01-26T15:28:35.626Z,99907.20
2019-01-26T15:31:06.118Z,99909.39
2019-01-26T15:33:37.216Z,99897.35
2019-01-26T15:36:09.115Z,99901.22
2019-01-26T15:38:38.521Z,99901.42
2019-01-26T15:41:07.930Z,99898.67
2019-01-26T15:43:37.563Z,99892.11
2019-01-26T15:46:07.391Z,99890.72
2019-01-26T15:48:36.865Z,99876.72
2019-01-26T15:51:06.410Z,99879.42
2019-01-26T15:53:35.866Z,99877.63
2019-01-26T15:56:05.505Z,99877.93
2019-01-26T15:58:35.233Z,99874.61
2019-01-26T16:01:06.212Z,99872.70
2019-01-26T16:03:36.685Z,99871.87
2019-01-26T16:06:07.988Z,99861.84
2019-01-26T16:08:39.176Z,99866.58
2019-01-26T16:11:08.577Z,99865.16
2019-01-26T16:13:38.071Z,99856.20
2019-01-26T16:16:08.083Z,99853.70
2019-01-26T16:18:37.548Z,99854.02
2019-01-26T16:21:07.311Z,99848.87
2019-01-26T16:23:36.779Z,99853.23
2019-01-26T16:26:06.608Z,99854.00
2019-01-26T16:28:36.499Z,99851.26
2019-01-26T16:31:06.098Z,99851.16
2019-01-26T16:33:35.536Z,99842.64
2019-01-26T16:36:05.481Z,99848.24
2019-01-26T16:38:36.055Z,99841.98
2019-01-26T16:41:06.749Z,99838.27
2019-01-26T16:43:36.326Z,99836.28
2019-01-26T16:46:06.856Z,99832.41
2019-01-26T16:48:37.391Z,99835.36
2019-01-26T16:51:08.762Z,99838.67
2019-01-26T16:53:38.615Z,99838.67
2019-01-26T16:56:08.267Z,99830.63
2019-01-26T16:58:39.457Z,99827.52
2019-01-26T17:01:10.032Z,99826.56
2019-01-26T17:03:43.460Z,99821.36
2019-01-26T17:06:13.081Z,99817.50
2019-01-26T17:08:42.665Z,99819.28
2019-01-26T17:11:12.419Z,99813.92
2019-01-26T17:13:45.537Z,99811.73
2019-01-26T17:16:17.885Z,99809.75
2019-01-26T17:18:47.537Z,99806.54
2019-01-26T17:21:17.847Z,99803.42
2019-01-26T17:23:54.889Z,99793.39
2019-01-26T17:26:25.486Z,99797.47
2019-01-26T17:28:56.240Z,99785.53
2019-01-26T17:31:25.625Z,99784.60
2019-01-26T17:33:55.119Z,99789.04
2019-01-26T17:36:24.804Z,99780.06
2019-01-26T17:38:54.251Z,99778.44
2019-01-26T17:41:26.960Z,99778.84
2019-01-26T17:43:56.951Z,99774.19
2019-01-26T17:46:26.375Z,99769.82
2019-01-26T17:48:55.983Z,99765.55
2019-01-26T17:51:25.806Z,99763.39
2019-01-26T17:53:55.506Z,99763.84
2019-01-26T17:56:26.033Z,99762.78
2019-01-26T17:58:57.178Z,99755.80
2019-01-26T18:01:27.922Z,99761.75
2019-01-26T18:03:57.444Z,99750.96
2019-01-26T18:06:28.161Z,99751.52
2019-01-26T18:08:57.708Z,99749.95
2019-01-26T18:11:27.169Z,99735.56
2019-01-26T18:13:58.502Z,99735.41
2019-01-26T18:16:28.008Z,99728.53
2019-01-26T18:19:00.225Z,99729.50
2019-01-26T18:21:30.040Z,99733.61
2019-01-26T18:24:01.394Z,99726.98
2019-01-26T18:26:30.857Z,99726.66
2019-01-26T18:29:00.318Z,99723.66
2019-01-26T18:31:30.820Z,99719.64
2019-01-26T18:34:00.254Z,99714.98
2019-01-26T18:36:29.702Z,99708.83
2019-01-26T18:38:59.128Z,99710.05
2019-01-26T18:41:28.539Z,99710.33
2019-01-26T18:43:59.125Z,99705.34
2019-01-26T18:46:28.617Z,99699.29
2019-01-26T18:48:59.798Z,99703.27
2019-01-26T18:51:29.235Z,99691.77
2019-01-26T18:54:00.532Z,99688.14
2019-01-26T18:56:30.922Z,99689.83
2019-01-26T18:59:00.969Z,99687.36
2019-01-26T19:01:30.414Z,99676.28
2019-01-26T19:04:16.685Z,99684.78
2019-01-26T19:06:46.114Z,99679.87
2019-01-26T19:09:15.507Z,99672.13
2019-01-26T19:11:46.685Z,99667.68
2019-01-26T19:14:17.404Z,99666.75
2019-01-26T19:16:48.808Z,99660.77
2019-01-26T19:19:19.771Z,99664.36
2019-01-26T19:21:49.246Z,99664.28
2019-01-26T19:24:20.051Z,99660.77
2019-01-26T19:26:52.396Z,99661.34
2019-01-26T19:29:21.811Z,99657.39
2019-01-26T19:31:51.294Z,99650.02
2019-01-26T19:34:22.016Z,99650.30
2019-01-26T19:36:51.396Z,99641.59
2019-01-26T19:39:20.910Z,99643.96
2019-01-26T19:41:50.536Z,99651.41
2019-01-26T19:44:19.935Z,99642.28
2019-01-26T19:46:51.246Z,99636.18
2019-01-26T19:49:20.922Z,99636.61
2019-01-26T19:51:51.506Z,99624.67
2019-01-26T19:54:22.690Z,99627.90
2019-01-26T19:56:52.413Z,99621.02
2019-01-26T19:59:21.790Z,99622.03
2019-01-26T20:01:52.978Z,99614.94
2019-01-26T20:04:23.709Z,99610.79
2019-01-26T20:06:53.878Z,99608.31
2019-01-26T20:09:23.781Z,99604.58
2019-01-26T20:11:53.355Z,99598.86
2019-01-26T20:14:22.770Z,99595.97
2019-01-26T20:16:52.194Z,99593.16
2019-01-26T20:19:23.608Z,99585.58
2019-01-26T20:21:54.167Z,99582.42
2019-01-26T20:24:23.572Z,99577.58
2019-01-26T20:26:54.581Z,99580.05
2019-01-26T20:29:23.985Z,99577.06
2019-01-26T20:31:53.403Z,99563.11
2019-01-26T20:34:24.479Z,99561.95
2019-01-26T20:36:53.905Z,99547.84
2019-01-26T20:39:23.389Z,99544.51
2019-01-26T20:41:54.790Z,99543.70
2019-01-26T20:44:24.189Z,99550.28
2019-01-26T20:46:53.636Z,99548.48
2019-01-26T20:49:23.217Z,99540.53
2019-01-26T20:51:52.620Z,99538.86
2019-01-26T20:54:22.034Z,99530.89
2019-01-26T20:56:51.671Z,99522.70
2019-01-26T20:59:21.084Z,99514.42
2019-01-26T21:01:51.511Z,99520.01
2019-01-26T21:04:21.229Z,99518.52
2019-01-26T21:06:51.443Z,99514.94
2019-01-26T21:09:20.836Z,99507.38
2019-01-26T21:11:50.785Z,99512.22
2019-01-26T21:14:20.318Z,99509.34
2019-01-26T21:16:50.926Z,99503.13
2019-01-26T21:19:21.429Z,99500.92
2019-01-26T21:21:52.702Z,99502.66
2019-01-26T21:24:23.223Z,99501.11
2019-01-26T21:26:54.228Z,99498.16
2019-01-26T21:29:23.644Z,99492.23
2019-01-26T21:31:53.128Z,99495.17
2019-01-26T21:34:25.970Z,99491.30
2019-01-26T21:36:55.394Z,99485.20
2019-01-26T21:39:24.895Z,99481.13
2019-01-26T21:41:54.442Z,99484.28
2019-01-26T21:44:25.922Z,99476.16
2019-01-26T21:46:55.356Z,99466.70
2019-01-26T21:49:24.858Z,99461.30
2019-01-26T21:51:54.432Z,99462.43
2019-01-26T21:54:26.409Z,99456.55
2019-01-26T21:56:56.102Z,99463.53
2019-01-26T21:59:25.668Z,99459.08
2019-01-26T22:01:56.607Z,99445.77
2019-01-26T22:04:26.084Z,99447.91
2019-01-26T22:06:56.702Z,99451.23
2019-01-26T22:09:28.406Z,99449.80
2019-01-26T22:11:59.800Z,99445.23
2019-01-26T22:14:29.232Z,99440.92
2019-01-26T22:16:58.681Z,99436.02
2019-01-26T22:19:29.563Z,99436.91
2019-01-26T22:22:01.967Z,99434.81
2019-01-26T22:24:32.879Z,99432.28
2019-01-26T22:27:02.756Z,99432.09
2019-01-26T22:29:32.199Z,99424.91
2019-01-26T22:32:03.111Z,99414.97
2019-01-26T22:34:32.548Z,99414.36
2019-01-26T22:37:02.976Z,99412.35
2019-01-26T22:39:33.855Z,99414.02
2019-01-26T22:42:03.488Z,99405.37
2019-01-26T22:44:32.879Z,99409.50
2019-01-26T22:47:03.423Z,99399.11
2019-01-26T22:49:32.946Z,99396.06
2019-01-26T22:52:03.949Z,99387.91
2019-01-26T22:54:33.388Z,99385.64
2019-01-26T22:57:04.089Z,99377.69
2019-01-26T22:59:34.981Z,99382.98
2019-01-26T23:02:05.078Z,99379.80
2019-01-26T23:05:08.650Z,99370.31
2019-01-26T23:07:51.034Z,99364.67
2019-01-26T23:11:04.170Z,99357.69
2019-01-26T23:13:57.885Z,99354.56
2019-01-26T23:17:07.556Z,99342.01
2019-01-26T23:19:57.866Z,99334.52
2019-01-26T23:22:54.057Z,99333.08
2019-01-26T23:26:07.227Z,99323.33
2019-01-26T23:29:04.960Z,99316.81
2019-01-26T23:31:34.624Z,99307.38
2019-01-26T23:34:05.158Z,99307.46
2019-01-26T23:36:34.872Z,99303.21
2019-01-26T23:39:07.192Z,99303.37
2019-01-26T23:41:40.334Z,99297.68
2019-01-26T23:44:11.016Z,99295.73
2019-01-26T23:46:43.666Z,99287.42
2019-01-26T23:49:13.170Z,99278.38
2019-01-26T23:51:42.777Z,99271.63
2019-01-26T23:54:12.251Z,99271.63
2019-01-26T23:56:43.402Z,99267.89
2019-01-26T23:59:13.126Z,99266.41
